Time;durP1;ratioP1;P1;durP2;ratioP2;P2;SDS_P1;SDS_P2;PMS_P1;PMS_P2;Temp;Humidity;BMP_temperature;BMP_pressure;BME280_temperature;BME280_humidity;BME280_pressure;Samples;Min_cycle;Max_cycle;Signal;HPM_P1;HPM_P2
2022/04/16 00:01:43;;;;;;;;;;;;;;;;;;5075060;28;20286;-43
2022/04/16 00:04:09;;;;;;;;;;;;;;;;;;5075829;28;19956;-43
2022/04/16 00:06:34;;;;;;;;;;;;;;;;;;5075309;28;19924;-43
2022/04/16 00:09:00;;;;;;;;;;;;;;;;;;5083080;28;19919;-44
2022/04/16 00:11:25;;;;;;;;;;;;;;;;;;5076113;28;19908;-44
2022/04/16 00:13:50;;;;;;;;;;;;;;;;;;5076112;28;20319;-44
2022/04/16 00:16:17;;;;;;;;;;;;;;;;;;5075946;28;19987;-44
2022/04/16 00:18:42;;;;;;;;;;;;;;;;;;5075887;28;19909;-44
2022/04/16 00:21:07;;;;;;;;;;;;;;;;;;5076266;28;19908;-43
2022/04/16 00:23:32;;;;;;;;;;;;;;;;;;5075837;28;20286;-43
2022/04/16 00:25:58;;;;;;;;;;;;;;;;;;5089050;28;19912;-44
2022/04/16 00:28:26;;;;;;;;;;;;;;;;;;5095882;28;19918;-44
2022/04/16 00:30:51;;;;;;;;;;;;;;;;;;5095957;28;19988;-44
2022/04/16 00:33:19;;;;;;;;;;;;;;;;;;5095859;28;19961;-44
2022/04/16 00:35:44;;;;;;;;;;;;;;;;;;5090959;28;20390;-44
2022/04/16 00:38:09;;;;;;;;;;;;;;;;;;5075787;28;19954;-43
2022/04/16 00:40:34;;;;;;;;;;;;;;;;;;5075960;28;20402;-44
2022/04/16 00:43:00;;;;;;;;;;;;;;;;;;5075570;28;19923;-44
2022/04/16 00:45:25;;;;;;;;;;;;;;;;;;5076720;28;20308;-43
2022/04/16 00:47:50;;;;;;;;;;;;;;;;;;5095946;28;19916;-44
2022/04/16 00:50:15;;;;;;;;;;;;;;;;;;5095479;28;19909;-44
2022/04/16 00:52:40;;;;;;;;;;;;;;;;;;5096031;28;20374;-44
2022/04/16 00:55:06;;;;;;;;;;;;;;;;;;5095701;28;19911;-44
2022/04/16 00:57:31;;;;;;;;;;;;;;;;;;5095409;28;19963;-44
2022/04/16 00:59:56;;;;;;;;;;;;;;;;;;5096162;28;20275;-44
2022/04/16 01:02:21;;;;;;;;;;;;;;;;;;5095880;28;19915;-44
2022/04/16 01:04:46;;;;;;;;;;;;;;;;;;5095652;28;19943;-44
2022/04/16 01:07:11;;;;;;;;;;;;;;;;;;5079790;28;19970;-44
2022/04/16 01:09:37;;;;;;;;;;;;;;;;;;5094601;28;19919;-44
2022/04/16 01:12:02;;;;;;;;;;;;;;;;;;5096623;28;19915;-43
2022/04/16 01:14:29;;;;;;;;;;;;;;;;;;5099093;28;19909;-43
2022/04/16 01:16:55;;;;;;;;;;;;;;;;;;5099425;28;19934;-44
2022/04/16 01:19:21;;;;;;;;;;;;;;;;;;5099708;28;19912;-43
2022/04/16 01:21:46;;;;;;;;;;;;;;;;;;5099340;28;19914;-44
2022/04/16 01:24:11;;;;;;;;;;;;;;;;;;5099539;28;19912;-43
2022/04/16 01:26:38;;;;;;;;;;;;;;;;;;5099028;28;19916;-43
2022/04/16 01:29:03;;;;;;;;;;;;;;;;;;5099437;28;19908;-43
2022/04/16 01:31:30;;;;;;;;;;;;;;;;;;5099095;28;19908;-45
2022/04/16 01:33:57;;;;;;;;;;;;;;;;;;5098883;28;19963;-44
2022/04/16 01:36:22;;;;;;;;;;;;;;;;;;5090272;28;19979;-43
2022/04/16 01:38:48;;;;;;;;;;;;;;;;;;5078851;28;19920;-43
2022/04/16 01:41:13;;;;;;;;;;;;;;;;;;5078763;28;20377;-44
2022/04/16 01:43:38;;;;;;;;;;;;;;;;;;5078914;28;19971;-43
2022/04/16 01:46:04;;;;;;;;;;;;;;;;;;5082037;28;19994;-44
2022/04/16 01:48:30;;;;;;;;;;;;;;;;;;5088565;28;19916;-43
2022/04/16 01:50:56;;;;;;;;;;;;;;;;;;5090172;22;19942;-43
2022/04/16 01:53:21;;;;;;;;;;;;;;;;;;5099061;28;19998;-43
2022/04/16 01:55:47;;;;;;;;;;;;;;;;;;5098545;28;19975;-44
2022/04/16 01:58:13;;;;;;;;;;;;;;;;;;5098767;28;19958;-43
2022/04/16 02:00:39;;;;;;;;;;;;;;;;;;5098914;28;19915;-44
2022/04/16 02:03:05;;;;;;;;;;;;;;;;;;5098330;28;20278;-44
2022/04/16 02:05:30;;;;;;;;;;;;;;;;;;5098641;28;19913;-44
2022/04/16 02:07:55;;;;;;;;;;;;;;;;;;5098585;28;19912;-44
2022/04/16 02:10:20;;;;;;;;;;;;;;;;;;5098926;28;20337;-44
2022/04/16 02:12:45;;;;;;;;;;;;;;;;;;5098787;28;19912;-44
2022/04/16 02:15:11;;;;;;;;;;;;;;;;;;5098368;28;19915;-44
2022/04/16 02:17:36;;;;;;;;;;;;;;;;;;5098294;28;19912;-43
2022/04/16 02:20:03;;;;;;;;;;;;;;;;;;5097808;28;20414;-44
2022/04/16 02:22:28;;;;;;;;;;;;;;;;;;5079812;28;19916;-44
2022/04/16 02:24:53;;;;;;;;;;;;;;;;;;5097517;28;19915;-43
2022/04/16 02:27:19;;;;;;;;;;;;;;;;;;5098595;28;19912;-44
2022/04/16 02:29:44;;;;;;;;;;;;;;;;;;5098277;28;19908;-44
2022/04/16 02:32:09;;;;;;;;;;;;;;;;;;5115085;28;20370;-44
2022/04/16 02:34:34;;;;;;;;;;;;;;;;;;5117048;28;20289;-43
2022/04/16 02:36:59;;;;;;;;;;;;;;;;;;5118809;28;20011;-44
2022/04/16 02:39:25;;;;;;;;;;;;;;;;;;5118628;28;20021;-43
2022/04/16 02:41:50;;;;;;;;;;;;;;;;;;5118485;28;19907;-43
2022/04/16 02:47:05;;;;;;;;;;;;;;;;;;5118536;28;19918;-43
2022/04/16 02:49:30;;;;;;;;;;;;;;;;;;5118376;28;19912;-43
2022/04/16 02:51:55;;;;;;;;;;;;;;;;;;5117782;28;19969;-44
2022/04/16 02:54:24;;;;;;;;;;;;;;;;;;5118274;28;20263;-44
2022/04/16 02:56:49;;;;;;;;;;;;;;;;;;5117920;28;19911;-43
2022/04/16 02:59:14;;;;;;;;;;;;;;;;;;5117824;28;20341;-43
2022/04/16 03:01:39;;;;;;;;;;;;;;;;;;5117515;28;19915;-43
2022/04/16 03:04:04;;;;;;;;;;;;;;;;;;5118048;28;19923;-43
2022/04/16 03:06:30;;;;;;;;;;;;;;;;;;5117715;28;20004;-43
2022/04/16 03:08:55;;;;;;;;;;;;;;;;;;5118162;28;19911;-44
2022/04/16 03:11:20;;;;;;;;;;;;;;;;;;5118439;28;19912;-44
2022/04/16 03:13:45;;;;;;;;;;;;;;;;;;5118177;28;19912;-43
2022/04/16 03:18:54;;;;;;;;;;;;;;;;;;5116928;28;19918;-43
2022/04/16 03:21:20;;;;;;;;;;;;;;;;;;5117223;28;19912;-44
2022/04/16 03:23:46;;;;;;;;;;;;;;;;;;5117217;28;20438;-43
2022/04/16 03:26:12;;;;;;;;;;;;;;;;;;5117127;28;19912;-44
2022/04/16 03:28:38;;;;;;;;;;;;;;;;;;5117189;28;19952;-44
2022/04/16 03:31:03;;;;;;;;;;;;;;;;;;5117147;28;19911;-44
2022/04/16 03:33:31;;;;;;;;;;;;;;;;;;5117339;28;19961;-43
2022/04/16 03:35:56;;;;;;;;;;;;;;;;;;5117529;28;20000;-43
2022/04/16 03:38:21;;;;;;;;;;;;;;;;;;5117623;28;19904;-43
2022/04/16 03:40:48;;;;;;;;;;;;;;;;;;5117486;28;19911;-44
2022/04/16 03:43:13;;;;;;;;;;;;;;;;;;5117382;28;19919;-44
2022/04/16 03:45:38;;;;;;;;;;;;;;;;;;5116817;28;19912;-43
2022/04/16 03:48:03;;;;;;;;;;;;;;;;;;5117293;28;19908;-43
2022/04/16 03:50:29;;;;;;;;;;;;;;;;;;5116927;28;19931;-43
2022/04/16 03:52:54;;;;;;;;;;;;;;;;;;5117213;28;20429;-44
2022/04/16 04:00:47;;;;;;;;;;;;;;;;;;5117146;28;19914;-43
2022/04/16 04:03:12;;;;;;;;;;;;;;;;;;5116869;28;20266;-43
2022/04/16 04:05:37;;;;;;;;;;;;;;;;;;5116881;28;19975;-43
2022/04/16 04:08:02;;;;;;;;;;;;;;;;;;5116157;28;20373;-44
2022/04/16 04:10:28;;;;;;;;;;;;;;;;;;5117155;28;19915;-43
2022/04/16 04:12:53;;;;;;;;;;;;;;;;;;5117133;28;19904;-43
2022/04/16 04:15:18;;;;;;;;;;;;;;;;;;5116950;28;19994;-44
2022/04/16 04:17:43;;;;;;;;;;;;;;;;;;5116960;28;20459;-43
2022/04/16 04:20:08;;;;;;;;;;;;;;;;;;5116918;28;19908;-44
2022/04/16 04:22:33;;;;;;;;;;;;;;;;;;5116987;28;19908;-43
2022/04/16 04:24:58;;;;;;;;;;;;;;;;;;5116390;28;20369;-43
2022/04/16 04:27:23;;;;;;;;;;;;;;;;;;5117058;28;20381;-43
2022/04/16 04:29:48;;;;;;;;;;;;;;;;;;5116215;28;19916;-43
2022/04/16 04:32:13;;;;;;;;;;;;;;;;;;5116129;28;19908;-43
2022/04/16 04:34:39;;;;;;;;;;;;;;;;;;5116061;28;19935;-43
2022/04/16 04:37:04;;;;;;;;;;;;;;;;;;5116373;28;20352;-44
2022/04/16 04:39:29;;;;;;;;;;;;;;;;;;5116138;28;20002;-44
2022/04/16 04:41:54;;;;;;;;;;;;;;;;;;5116266;28;20374;-44
2022/04/16 04:44:19;;;;;;;;;;;;;;;;;;5116065;28;20263;-43
2022/04/16 04:46:44;;;;;;;;;;;;;;;;;;5117462;28;20281;-43
2022/04/16 04:49:11;;;;;;;;;;;;;;;;;;5122843;28;19916;-43
2022/04/16 04:51:36;;;;;;;;;;;;;;;;;;5122937;28;19919;-43
2022/04/16 04:54:01;;;;;;;;;;;;;;;;;;5122779;28;19914;-45
2022/04/16 04:56:26;;;;;;;;;;;;;;;;;;5122924;28;19977;-43
2022/04/16 04:58:51;;;;;;;;;;;;;;;;;;5122939;28;19919;-43
2022/04/16 05:01:18;;;;;;;;;;;;;;;;;;5123126;28;19908;-43
2022/04/16 05:03:43;;;;;;;;;;;;;;;;;;5122747;28;20629;-43
2022/04/16 05:06:08;;;;;;;;;;;;;;;;;;5122950;28;19981;-43
2022/04/16 05:08:33;;;;;;;;;;;;;;;;;;5121787;28;19916;-43
2022/04/16 05:10:58;;;;;;;;;;;;;;;;;;5123057;28;19904;-43
2022/04/16 05:13:23;;;;;;;;;;;;;;;;;;5122616;28;20378;-43
2022/04/16 05:15:48;;;;;;;;;;;;;;;;;;5121588;28;20263;-44
2022/04/16 05:18:13;;;;;;;;;;;;;;;;;;5123137;28;19908;-43
2022/04/16 05:20:38;;;;;;;;;;;;;;;;;;5121525;28;20012;-43
2022/04/16 05:23:03;;;;;;;;;;;;;;;;;;5122794;28;19916;-44
2022/04/16 05:25:29;;;;;;;;;;;;;;;;;;5122833;28;20270;-43
2022/04/16 05:27:54;;;;;;;;;;;;;;;;;;5123140;28;19915;-44
2022/04/16 05:30:38;;;;;;;;;;;;;;;;;;5104868;28;19915;-44
2022/04/16 05:33:12;;;;;;;;;;;;;;;;;;5122849;28;19912;-43
2022/04/16 05:35:37;;;;;;;;;;;;;;;;;;5122601;28;19941;-43
2022/04/16 05:38:02;;;;;;;;;;;;;;;;;;5123248;28;20274;-43
2022/04/16 05:40:27;;;;;;;;;;;;;;;;;;5122690;28;19907;-43
2022/04/16 05:42:52;;;;;;;;;;;;;;;;;;5122833;28;19920;-43
2022/04/16 05:45:18;;;;;;;;;;;;;;;;;;5122345;28;19919;-44
2022/04/16 05:47:43;;;;;;;;;;;;;;;;;;5122889;28;19912;-44
2022/04/16 05:50:08;;;;;;;;;;;;;;;;;;5122392;28;19908;-43
2022/04/16 05:52:33;;;;;;;;;;;;;;;;;;5121911;28;19927;-43
2022/04/16 05:54:58;;;;;;;;;;;;;;;;;;5121858;28;19927;-43
2022/04/16 05:57:25;;;;;;;;;;;;;;;;;;5121932;28;19916;-43
2022/04/16 05:59:50;;;;;;;;;;;;;;;;;;5117973;28;19984;-45
2022/04/16 06:02:15;;;;;;;;;;;;;;;;;;5119129;28;19908;-45
2022/04/16 06:04:40;;;;;;;;;;;;;;;;;;5119090;28;19912;-43
2022/04/16 06:07:05;;;;;;;;;;;;;;;;;;5118660;28;20304;-43
2022/04/16 06:09:31;;;;;;;;;;;;;;;;;;5118970;28;19908;-43
2022/04/16 06:11:56;;;;;;;;;;;;;;;;;;5118528;28;19934;-44
2022/04/16 06:14:21;;;;;;;;;;;;;;;;;;5119022;28;19973;-43
2022/04/16 06:16:46;;;;;;;;;;;;;;;;;;5118520;28;19999;-43
2022/04/16 06:19:11;;;;;;;;;;;;;;;;;;5119065;28;19907;-44
2022/04/16 06:21:36;;;;;;;;;;;;;;;;;;5118623;28;19915;-45
2022/04/16 06:24:01;;;;;;;;;;;;;;;;;;5118735;28;19956;-44
2022/04/16 06:26:27;;;;;;;;;;;;;;;;;;5118666;28;19987;-43
2022/04/16 06:28:52;;;;;;;;;;;;;;;;;;5118956;28;19912;-43
2022/04/16 06:31:17;;;;;;;;;;;;;;;;;;5118507;28;20316;-43
2022/04/16 06:33:42;;;;;;;;;;;;;;;;;;5119081;28;19910;-43
2022/04/16 06:36:07;;;;;;;;;;;;;;;;;;5118439;28;19918;-43
2022/04/16 06:38:32;;;;;;;;;;;;;;;;;;5119030;28;19907;-43
2022/04/16 06:40:58;;;;;;;;;;;;;;;;;;5118386;28;19915;-43
2022/04/16 06:43:23;;;;;;;;;;;;;;;;;;5118123;28;19916;-44
2022/04/16 06:45:48;;;;;;;;;;;;;;;;;;5117952;28;19919;-43
2022/04/16 06:48:13;;;;;;;;;;;;;;;;;;5118096;28;19946;-43
2022/04/16 06:50:38;;;;;;;;;;;;;;;;;;5118018;28;19982;-43
2022/04/16 06:53:03;;;;;;;;;;;;;;;;;;5118796;28;19922;-44
2022/04/16 06:55:28;;;;;;;;;;;;;;;;;;5118364;28;19912;-43
2022/04/16 06:57:53;;;;;;;;;;;;;;;;;;5118410;28;19907;-44
2022/04/16 07:00:18;;;;;;;;;;;;;;;;;;5118244;28;19907;-43
2022/04/16 07:02:44;;;;;;;;;;;;;;;;;;5117665;28;19964;-44
2022/04/16 07:05:09;;;;;;;;;;;;;;;;;;5117999;28;19919;-44
2022/04/16 07:07:34;;;;;;;;;;;;;;;;;;5118142;28;19974;-44
2022/04/16 07:09:59;;;;;;;;;;;;;;;;;;5117688;28;19961;-45
2022/04/16 07:12:24;;;;;;;;;;;;;;;;;;5117811;28;19954;-44
2022/04/16 07:14:50;;;;;;;;;;;;;;;;;;5117391;28;20030;-45
2022/04/16 07:17:15;;;;;;;;;;;;;;;;;;5117222;28;19908;-44
2022/04/16 07:19:40;;;;;;;;;;;;;;;;;;5117542;28;19911;-45
2022/04/16 07:22:05;;;;;;;;;;;;;;;;;;5117384;28;20018;-44
2022/04/16 07:24:30;;;;;;;;;;;;;;;;;;5116760;28;20002;-44
2022/04/16 07:26:56;;;;;;;;;;;;;;;;;;5117068;28;19916;-43
2022/04/16 07:29:21;;;;;;;;;;;;;;;;;;5117208;28;19960;-43
2022/04/16 07:31:46;;;;;;;;;;;;;;;;;;5117223;28;19912;-44
2022/04/16 07:34:11;;;;;;;;;;;;;;;;;;5116730;28;20266;-44
2022/04/16 07:36:36;;;;;;;;;;;;;;;;;;5116963;28;19947;-45
2022/04/16 07:39:01;;;;;;;;;;;;;;;;;;5116871;28;19915;-45
2022/04/16 07:41:26;;;;;;;;;;;;;;;;;;5116986;28;19919;-41
2022/04/16 07:43:52;;;;;;;;;;;;;;;;;;5116865;28;19912;-42
2022/04/16 07:46:21;;;;;;;;;;;;;;;;;;5116698;28;20290;-44
2022/04/16 07:48:46;;;;;;;;;;;;;;;;;;5116551;28;19922;-44
2022/04/16 07:51:11;;;;;;;;;;;;;;;;;;5116592;28;19924;-45
2022/04/16 07:53:36;;;;;;;;;;;;;;;;;;5116708;28;20362;-44
2022/04/16 07:56:02;;;;;;;;;;;;;;;;;;5116344;28;19912;-45
2022/04/16 07:58:27;;;;;;;;;;;;;;;;;;5116233;28;19940;-44
2022/04/16 08:00:52;;;;;;;;;;;;;;;;;;5116615;28;19977;-43
2022/04/16 08:03:17;;;;;;;;;;;;;;;;;;5116199;28;19912;-42
2022/04/16 08:05:42;;;;;;;;;;;;;;;;;;5116486;28;19915;-42
2022/04/16 08:08:10;;;;;;;;;;;;;;;;;;5116191;28;19918;-43
2022/04/16 08:10:37;;;;;;;;;;;;;;;;;;5116549;28;19907;-43
2022/04/16 08:13:02;;;;;;;;;;;;;;;;;;5115958;28;20328;-43
2022/04/16 08:15:27;;;;;;;;;;;;;;;;;;5114860;28;19915;-43
2022/04/16 08:17:53;;;;;;;;;;;;;;;;;;5112170;28;19930;-44
2022/04/16 08:20:18;;;;;;;;;;;;;;;;;;5115757;28;19914;-43
2022/04/16 08:22:46;;;;;;;;;;;;;;;;;;5115437;28;19990;-43
2022/04/16 08:27:48;;;;;;;;;;;;;;;;;;5114782;28;19951;-42
2022/04/16 08:30:13;;;;;;;;;;;;;;;;;;5115804;28;20383;-43
2022/04/16 08:32:41;;;;;;;;;;;;;;;;;;5116124;28;19961;-44
2022/04/16 08:35:06;;;;;;;;;;;;;;;;;;5115936;28;20350;-43
2022/04/16 08:37:31;;;;;;;;;;;;;;;;;;5116651;28;19952;-42
2022/04/16 08:39:56;;;;;;;;;;;;;;;;;;5115504;28;19919;-43
2022/04/16 08:42:21;;;;;;;;;;;;;;;;;;5115843;28;20417;-43
2022/04/16 08:44:46;;;;;;;;;;;;;;;;;;5097032;28;20274;-43
2022/04/16 08:47:11;;;;;;;;;;;;;;;;;;5115752;28;20249;-43
2022/04/16 08:49:37;;;;;;;;;;;;;;;;;;5115617;28;20274;-43
2022/04/16 08:52:02;;;;;;;;;;;;;;;;;;5115325;28;19921;-43
2022/04/16 08:54:27;;;;;;;;;;;;;;;;;;5115015;28;19912;-44
2022/04/16 08:56:52;;;;;;;;;;;;;;;;;;5115268;28;19915;-44
2022/04/16 08:59:18;;;;;;;;;;;;;;;;;;5115206;28;19914;-43
2022/04/16 09:01:43;;;;;;;;;;;;;;;;;;5115378;28;19907;-43
2022/04/16 09:04:08;;;;;;;;;;;;;;;;;;5115177;28;19923;-43
2022/04/16 09:06:33;;;;;;;;;;;;;;;;;;5115049;28;19908;-43
2022/04/16 09:08:58;;;;;;;;;;;;;;;;;;5115791;28;19908;-43
2022/04/16 09:11:26;;;;;;;;;;;;;;;;;;5115604;28;19912;-43
2022/04/16 09:13:52;;;;;;;;;;;;;;;;;;5115449;28;19912;-45
2022/04/16 09:16:17;;;;;;;;;;;;;;;;;;5116260;28;19908;-44
2022/04/16 09:18:42;;;;;;;;;;;;;;;;;;5115556;28;19915;-44
2022/04/16 09:21:07;;;;;;;;;;;;;;;;;;5115485;28;19908;-44
2022/04/16 09:23:32;;;;;;;;;;;;;;;;;;5115365;28;19912;-43
2022/04/16 09:25:58;;;;;;;;;;;;;;;;;;5115694;28;19908;-44
2022/04/16 09:28:24;;;;;;;;;;;;;;;;;;5114993;28;19973;-44
2022/04/16 09:30:49;;;;;;;;;;;;;;;;;;5115442;28;19911;-44
2022/04/16 09:33:14;;;;;;;;;;;;;;;;;;5116401;28;19916;-44
2022/04/16 09:35:39;;;;;;;;;;;;;;;;;;5119050;28;19912;-43
2022/04/16 09:38:06;;;;;;;;;;;;;;;;;;5118989;28;19908;-44
2022/04/16 09:40:31;;;;;;;;;;;;;;;;;;5119074;28;19915;-44
2022/04/16 09:42:56;;;;;;;;;;;;;;;;;;5118839;28;19912;-43
2022/04/16 09:45:21;;;;;;;;;;;;;;;;;;5118705;28;20765;-44
2022/04/16 09:47:47;;;;;;;;;;;;;;;;;;5118942;28;19908;-43
2022/04/16 09:50:12;;;;;;;;;;;;;;;;;;5118681;28;20331;-44
2022/04/16 09:52:37;;;;;;;;;;;;;;;;;;5118598;28;19927;-43
2022/04/16 09:55:02;;;;;;;;;;;;;;;;;;5118452;28;19959;-43
2022/04/16 09:57:27;;;;;;;;;;;;;;;;;;5118959;28;19915;-44
2022/04/16 09:59:53;;;;;;;;;;;;;;;;;;5118369;28;19919;-44
2022/04/16 10:02:18;;;;;;;;;;;;;;;;;;5118200;28;19912;-43
2022/04/16 10:04:43;;;;;;;;;;;;;;;;;;5118584;28;19911;-44
2022/04/16 10:07:08;;;;;;;;;;;;;;;;;;5118647;28;19918;-44
2022/04/16 10:09:35;;;;;;;;;;;;;;;;;;5118755;28;19908;-44
2022/04/16 10:14:43;;;;;;;;;;;;;;;;;;5118593;28;20393;-44
2022/04/16 10:17:09;;;;;;;;;;;;;;;;;;5118023;28;19916;-44
2022/04/16 10:19:34;;;;;;;;;;;;;;;;;;5117866;28;19908;-44
2022/04/16 10:21:59;;;;;;;;;;;;;;;;;;5117950;28;19939;-43
2022/04/16 10:24:25;;;;;;;;;;;;;;;;;;5117836;28;19965;-45
2022/04/16 10:26:50;;;;;;;;;;;;;;;;;;5118073;28;19916;-44
2022/04/16 10:29:15;;;;;;;;;;;;;;;;;;5117969;28;19904;-44
2022/04/16 10:31:40;;;;;;;;;;;;;;;;;;5117812;28;19911;-44
2022/04/16 10:34:05;;;;;;;;;;;;;;;;;;5117842;28;20374;-44
2022/04/16 10:36:32;;;;;;;;;;;;;;;;;;5117573;28;19915;-44
2022/04/16 10:38:57;;;;;;;;;;;;;;;;;;5117823;28;19951;-45
2022/04/16 10:41:22;;;;;;;;;;;;;;;;;;5117647;28;20412;-43
2022/04/16 10:43:47;;;;;;;;;;;;;;;;;;5117695;28;19990;-44
2022/04/16 10:46:13;;;;;;;;;;;;;;;;;;5116977;28;19996;-45
2022/04/16 10:48:38;;;;;;;;;;;;;;;;;;5117605;28;19935;-44
2022/04/16 10:51:03;;;;;;;;;;;;;;;;;;5117730;28;21028;-44
2022/04/16 10:53:28;;;;;;;;;;;;;;;;;;5117988;28;19915;-44
2022/04/16 10:55:53;;;;;;;;;;;;;;;;;;5118011;28;19964;-44
2022/04/16 10:58:20;;;;;;;;;;;;;;;;;;5099274;28;19995;-45
2022/04/16 11:00:45;;;;;;;;;;;;;;;;;;5117646;28;19915;-44
2022/04/16 11:03:11;;;;;;;;;;;;;;;;;;5117278;28;19918;-44
2022/04/16 11:05:42;;;;;;;;;;;;;;;;;;5117494;28;19998;-45
2022/04/16 11:08:07;;;;;;;;;;;;;;;;;;5117313;28;19916;-45
2022/04/16 11:10:32;;;;;;;;;;;;;;;;;;5117314;28;19914;-44
2022/04/16 11:12:57;;;;;;;;;;;;;;;;;;5117283;28;19904;-44
2022/04/16 11:15:26;;;;;;;;;;;;;;;;;;5117040;28;19919;-45
2022/04/16 11:17:51;;;;;;;;;;;;;;;;;;5117328;28;19973;-44
2022/04/16 11:20:16;;;;;;;;;;;;;;;;;;5117184;28;20376;-44
2022/04/16 11:22:41;;;;;;;;;;;;;;;;;;5116863;28;19908;-44
2022/04/16 11:25:06;;;;;;;;;;;;;;;;;;5116981;28;19915;-44
2022/04/16 11:35:43;;;;;;;;;;;;;;;;;;5117025;28;19941;-44
2022/04/16 11:38:08;;;;;;;;;;;;;;;;;;5117077;28;19990;-44
2022/04/16 11:40:33;;;;;;;;;;;;;;;;;;5116572;28;19908;-45
2022/04/16 11:42:58;;;;;;;;;;;;;;;;;;5116786;28;20425;-45
2022/04/16 11:45:23;;;;;;;;;;;;;;;;;;5116386;28;19915;-45
2022/04/16 11:47:48;;;;;;;;;;;;;;;;;;5116807;28;19961;-44
2022/04/16 11:50:14;;;;;;;;;;;;;;;;;;5116680;28;19907;-44
2022/04/16 11:52:40;;;;;;;;;;;;;;;;;;5115949;28;19920;-44
2022/04/16 11:55:05;;;;;;;;;;;;;;;;;;5116348;28;19908;-44
2022/04/16 11:57:30;;;;;;;;;;;;;;;;;;5114862;28;19935;-46
2022/04/16 11:59:55;;;;;;;;;;;;;;;;;;5116492;28;19908;-44
2022/04/16 12:02:20;;;;;;;;;;;;;;;;;;5116287;28;19911;-45
2022/04/16 12:04:45;;;;;;;;;;;;;;;;;;5116207;28;19916;-44
2022/04/16 12:07:11;;;;;;;;;;;;;;;;;;5116425;28;19908;-44
2022/04/16 12:09:36;;;;;;;;;;;;;;;;;;5117236;28;19908;-44
2022/04/16 12:12:03;;;;;;;;;;;;;;;;;;5117340;28;20335;-44
2022/04/16 12:14:28;;;;;;;;;;;;;;;;;;5117011;28;19943;-44
2022/04/16 12:16:53;;;;;;;;;;;;;;;;;;5116980;28;19915;-44
2022/04/16 12:19:18;;;;;;;;;;;;;;;;;;5117121;28;19904;-44
2022/04/16 12:21:43;;;;;;;;;;;;;;;;;;5117041;28;19911;-44
2022/04/16 12:24:09;;;;;;;;;;;;;;;;;;5116502;28;19945;-43
2022/04/16 12:26:34;;;;;;;;;;;;;;;;;;5116218;28;19996;-43
2022/04/16 12:28:59;;;;;;;;;;;;;;;;;;5116585;28;19998;-43
2022/04/16 12:31:24;;;;;;;;;;;;;;;;;;5116595;28;19947;-44
2022/04/16 12:33:50;;;;;;;;;;;;;;;;;;5116490;28;19904;-44
2022/04/16 12:36:15;;;;;;;;;;;;;;;;;;5115161;28;19912;-43
2022/04/16 12:38:40;;;;;;;;;;;;;;;;;;5116349;28;19907;-43
2022/04/16 12:41:05;;;;;;;;;;;;;;;;;;5116266;28;20294;-44
2022/04/16 12:43:30;;;;;;;;;;;;;;;;;;5116345;28;20365;-43
2022/04/16 12:45:55;;;;;;;;;;;;;;;;;;5116383;28;19915;-43
2022/04/16 12:48:21;;;;;;;;;;;;;;;;;;5116535;28;19907;-44
2022/04/16 12:50:46;;;;;;;;;;;;;;;;;;5116295;28;19920;-43
2022/04/16 12:53:11;;;;;;;;;;;;;;;;;;5116128;28;19916;-45
2022/04/16 12:55:36;;;;;;;;;;;;;;;;;;5116152;28;19908;-44
2022/04/16 12:58:01;;;;;;;;;;;;;;;;;;5116588;28;20006;-43
2022/04/16 13:00:26;;;;;;;;;;;;;;;;;;5116094;28;19908;-44
2022/04/16 13:02:51;;;;;;;;;;;;;;;;;;5116181;28;19907;-43
2022/04/16 13:05:17;;;;;;;;;;;;;;;;;;5116437;28;19908;-44
2022/04/16 13:07:42;;;;;;;;;;;;;;;;;;5116040;28;19908;-43
2022/04/16 13:10:08;;;;;;;;;;;;;;;;;;5119985;28;19908;-44
2022/04/16 13:12:33;;;;;;;;;;;;;;;;;;5120618;28;20006;-43
2022/04/16 13:14:58;;;;;;;;;;;;;;;;;;5120394;28;19908;-45
2022/04/16 13:17:23;;;;;;;;;;;;;;;;;;5120430;28;19912;-43
2022/04/16 13:19:48;;;;;;;;;;;;;;;;;;5120141;28;19939;-43
2022/04/16 13:22:13;;;;;;;;;;;;;;;;;;5119036;28;19911;-45
2022/04/16 13:24:38;;;;;;;;;;;;;;;;;;5120738;28;19919;-44
2022/04/16 13:27:04;;;;;;;;;;;;;;;;;;5120339;28;19914;-43
2022/04/16 13:29:29;;;;;;;;;;;;;;;;;;5117236;28;19995;-44
2022/04/16 13:31:56;;;;;;;;;;;;;;;;;;5120633;28;19908;-44
2022/04/16 13:34:21;;;;;;;;;;;;;;;;;;5120106;28;19988;-43
2022/04/16 13:36:46;;;;;;;;;;;;;;;;;;5120060;28;19916;-43
2022/04/16 13:41:38;;;;;;;;;;;;;;;;;;5120026;28;19915;-43
2022/04/16 13:41:56;;;;;;;;;;;;;;;;;;5120193;28;19933;-43
2022/04/16 13:44:21;;;;;;;;;;;;;;;;;;5119696;28;19916;-44
2022/04/16 13:46:47;;;;;;;;;;;;;;;;;;5119904;28;19930;-44
2022/04/16 13:49:12;;;;;;;;;;;;;;;;;;5120081;28;19915;-43
2022/04/16 13:51:37;;;;;;;;;;;;;;;;;;5126211;22;19931;-44
2022/04/16 13:54:02;;;;;;;;;;;;;;;;;;5119042;28;19916;-44
2022/04/16 13:56:27;;;;;;;;;;;;;;;;;;5119947;28;19908;-44
2022/04/16 13:58:53;;;;;;;;;;;;;;;;;;5119328;28;19915;-43
2022/04/16 14:01:20;;;;;;;;;;;;;;;;;;5100208;28;19915;-44
2022/04/16 14:03:45;;;;;;;;;;;;;;;;;;5118906;28;19916;-43
2022/04/16 14:06:10;;;;;;;;;;;;;;;;;;5119093;28;20006;-44
2022/04/16 14:08:36;;;;;;;;;;;;;;;;;;5118973;28;19904;-44
2022/04/16 14:11:01;;;;;;;;;;;;;;;;;;5118535;28;19968;-43
2022/04/16 14:13:32;;;;;;;;;;;;;;;;;;5118093;28;20427;-44
2022/04/16 14:15:57;;;;;;;;;;;;;;;;;;5118449;28;19970;-45
2022/04/16 14:18:22;;;;;;;;;;;;;;;;;;5118081;28;19908;-44
2022/04/16 14:20:48;;;;;;;;;;;;;;;;;;5116826;28;19915;-45
2022/04/16 14:23:13;;;;;;;;;;;;;;;;;;5118080;28;19919;-44
2022/04/16 14:25:38;;;;;;;;;;;;;;;;;;5118345;28;19955;-44
2022/04/16 14:28:04;;;;;;;;;;;;;;;;;;5118276;28;19908;-44
2022/04/16 14:30:29;;;;;;;;;;;;;;;;;;5117701;28;19908;-44
2022/04/16 14:32:54;;;;;;;;;;;;;;;;;;5117877;28;19935;-45
2022/04/16 14:35:19;;;;;;;;;;;;;;;;;;5117983;28;19912;-44
2022/04/16 14:37:44;;;;;;;;;;;;;;;;;;5132473;27;19914;-44
2022/04/16 14:40:09;;;;;;;;;;;;;;;;;;5138771;27;19998;-44
2022/04/16 14:42:34;;;;;;;;;;;;;;;;;;5138301;27;19908;-44
2022/04/16 14:45:00;;;;;;;;;;;;;;;;;;5119805;27;20358;-45
2022/04/16 14:47:26;;;;;;;;;;;;;;;;;;5138030;27;20376;-44
2022/04/16 14:49:51;;;;;;;;;;;;;;;;;;5138112;27;19907;-45
2022/04/16 14:52:16;;;;;;;;;;;;;;;;;;5138165;27;19920;-44
2022/04/16 14:54:41;;;;;;;;;;;;;;;;;;5137646;27;19935;-45
2022/04/16 14:57:06;;;;;;;;;;;;;;;;;;5138158;27;19962;-44
2022/04/16 14:59:31;;;;;;;;;;;;;;;;;;5137977;27;20266;-45
2022/04/16 15:01:58;;;;;;;;;;;;;;;;;;5119608;27;19907;-44
2022/04/16 15:04:23;;;;;;;;;;;;;;;;;;5137891;27;20002;-44
2022/04/16 15:06:48;;;;;;;;;;;;;;;;;;5137875;27;19962;-44
2022/04/16 15:09:13;;;;;;;;;;;;;;;;;;5138025;27;19911;-45
2022/04/16 15:11:38;;;;;;;;;;;;;;;;;;5137991;27;19947;-45
2022/04/16 15:14:04;;;;;;;;;;;;;;;;;;5137738;27;19960;-44
2022/04/16 15:16:29;;;;;;;;;;;;;;;;;;5138078;27;19908;-44
2022/04/16 15:18:54;;;;;;;;;;;;;;;;;;5137734;27;19907;-44
2022/04/16 15:21:19;;;;;;;;;;;;;;;;;;5137290;27;19908;-44
2022/04/16 15:23:44;;;;;;;;;;;;;;;;;;5137425;27;20365;-45
2022/04/16 15:26:09;;;;;;;;;;;;;;;;;;5137410;27;19907;-45
2022/04/16 15:28:34;;;;;;;;;;;;;;;;;;5137514;27;19907;-44
2022/04/16 15:30:59;;;;;;;;;;;;;;;;;;5136939;27;20467;-45
2022/04/16 15:33:24;;;;;;;;;;;;;;;;;;5137089;27;20388;-44
2022/04/16 15:35:50;;;;;;;;;;;;;;;;;;5136889;27;19994;-45
2022/04/16 15:38:16;;;;;;;;;;;;;;;;;;5137487;27;19968;-44
2022/04/16 15:40:41;;;;;;;;;;;;;;;;;;5119135;27;19907;-45
2022/04/16 15:43:06;;;;;;;;;;;;;;;;;;5118865;27;19915;-45
2022/04/16 15:45:31;;;;;;;;;;;;;;;;;;5136916;27;19914;-45
2022/04/16 15:47:56;;;;;;;;;;;;;;;;;;5136969;27;19907;-45
2022/04/16 15:50:22;;;;;;;;;;;;;;;;;;5136247;27;20346;-44
2022/04/16 15:52:47;;;;;;;;;;;;;;;;;;5136862;27;19919;-45
2022/04/16 15:55:12;;;;;;;;;;;;;;;;;;5137201;27;19908;-45
2022/04/16 15:57:37;;;;;;;;;;;;;;;;;;5134531;27;20370;-45
2022/04/16 16:00:05;;;;;;;;;;;;;;;;;;5117696;27;19923;-48
2022/04/16 16:02:30;;;;;;;;;;;;;;;;;;5136245;27;19911;-45
2022/04/16 16:04:55;;;;;;;;;;;;;;;;;;5136442;27;20403;-44
2022/04/16 16:07:20;;;;;;;;;;;;;;;;;;5136245;27;20431;-45
2022/04/16 16:09:45;;;;;;;;;;;;;;;;;;5136437;27;19972;-45
2022/04/16 16:12:11;;;;;;;;;;;;;;;;;;5136542;27;20326;-45
2022/04/16 16:14:36;;;;;;;;;;;;;;;;;;5118070;27;19994;-47
2022/04/16 16:17:01;;;;;;;;;;;;;;;;;;5136783;27;20007;-44
2022/04/16 16:19:26;;;;;;;;;;;;;;;;;;5136407;27;19919;-45
2022/04/16 16:21:52;;;;;;;;;;;;;;;;;;5136589;27;19908;-45
2022/04/16 16:24:17;;;;;;;;;;;;;;;;;;5136340;27;19911;-45
2022/04/16 16:26:42;;;;;;;;;;;;;;;;;;5136084;27;19945;-47
2022/04/16 16:29:07;;;;;;;;;;;;;;;;;;5136550;27;19984;-45
2022/04/16 16:31:33;;;;;;;;;;;;;;;;;;5136359;27;19998;-45
2022/04/16 16:33:58;;;;;;;;;;;;;;;;;;5136598;27;20344;-45
2022/04/16 16:36:23;;;;;;;;;;;;;;;;;;5136362;27;19904;-44
2022/04/16 16:38:48;;;;;;;;;;;;;;;;;;5136076;27;19914;-45
2022/04/16 16:41:14;;;;;;;;;;;;;;;;;;5136419;27;19914;-44
2022/04/16 16:43:40;;;;;;;;;;;;;;;;;;5135504;27;20368;-45
2022/04/16 16:46:05;;;;;;;;;;;;;;;;;;5136286;27;19911;-45
2022/04/16 16:48:31;;;;;;;;;;;;;;;;;;5136060;28;19907;-46
2022/04/16 16:50:56;;;;;;;;;;;;;;;;;;5135239;28;20227;-44
2022/04/16 16:53:21;;;;;;;;;;;;;;;;;;5136281;28;20097;-45
2022/04/16 16:55:47;;;;;;;;;;;;;;;;;;5135843;28;20438;-45
2022/04/16 16:58:12;;;;;;;;;;;;;;;;;;5135650;28;19919;-44